Time;durP1;ratioP1;P1;durP2;ratioP2;P2;SDS_P1;SDS_P2;PMS_P1;PMS_P2;Temp;Humidity;BMP_temperature;BMP_pressure;BME280_temperature;BME280_humidity;BME280_pressure;Samples;Min_cycle;Max_cycle;Signal;HPM_P1;HPM_P2
2022/03/03 00:02:24;;;;;;;11.13;5.30;;;;;;;;;;5104077;28;20036;-75
2022/03/03 00:04:52;;;;;;;9.30;4.88;;;;;;;;;;5103514;28;20024;-74
2022/03/03 00:07:18;;;;;;;12.95;5.47;;;;;;;;;;5103389;28;20028;-75
2022/03/03 00:09:43;;;;;;;14.07;5.70;;;;;;;;;;5103605;28;20049;-75
2022/03/03 00:12:09;;;;;;;10.68;5.20;;;;;;;;;;5103610;28;20505;-74
2022/03/03 00:14:36;;;;;;;16.83;5.60;;;;;;;;;;5103148;28;20547;-74
2022/03/03 00:17:01;;;;;;;13.07;5.65;;;;;;;;;;5105457;28;20123;-73
2022/03/03 00:19:27;;;;;;;14.35;6.15;;;;;;;;;;5106739;28;20498;-75
2022/03/03 00:21:53;;;;;;;16.58;5.85;;;;;;;;;;5107292;28;20024;-74
2022/03/03 00:24:18;;;;;;;12.25;5.15;;;;;;;;;;5107101;28;20028;-74
2022/03/03 00:26:44;;;;;;;10.38;5.38;;;;;;;;;;5105195;28;20044;-74
2022/03/03 00:29:09;;;;;;;17.13;5.72;;;;;;;;;;5105840;28;20031;-74
2022/03/03 00:31:35;;;;;;;16.38;5.57;;;;;;;;;;5107217;28;20072;-75
2022/03/03 00:34:04;;;;;;;13.48;5.70;;;;;;;;;;5106336;28;20051;-74
2022/03/03 00:36:29;;;;;;;22.20;5.88;;;;;;;;;;5106582;28;20161;-74
2022/03/03 00:38:55;;;;;;;10.93;5.18;;;;;;;;;;5105366;28;20525;-75
2022/03/03 00:41:20;;;;;;;11.98;5.13;;;;;;;;;;5106919;28;20505;-75
2022/03/03 00:43:45;;;;;;;16.80;5.60;;;;;;;;;;5106546;28;20024;-74
2022/03/03 00:46:11;;;;;;;12.32;5.95;;;;;;;;;;5106125;28;20028;-74
2022/03/03 00:48:36;;;;;;;10.23;5.25;;;;;;;;;;5106269;28;20057;-74
2022/03/03 00:51:07;;;;;;;13.02;4.88;;;;;;;;;;5106737;28;20066;-76
2022/03/03 00:53:34;;;;;;;8.10;4.15;;;;;;;;;;5104629;28;20100;-75
2022/03/03 00:56:03;;;;;;;13.75;4.15;;;;;;;;;;5105124;28;20237;-75
2022/03/03 00:58:28;;;;;;;6.82;3.47;;;;;;;;;;5104273;28;20023;-74
2022/03/03 01:00:54;;;;;;;9.65;3.47;;;;;;;;;;5106479;28;20441;-76
2022/03/03 01:03:21;;;;;;;11.30;4.40;;;;;;;;;;5105683;28;20058;-75
2022/03/03 01:05:53;;;;;;;13.88;5.15;;;;;;;;;;5105754;28;20285;-75
2022/03/03 01:08:19;;;;;;;13.07;4.40;;;;;;;;;;5104517;28;20024;-75
2022/03/03 01:10:45;;;;;;;7.35;3.88;;;;;;;;;;5104910;28;20035;-75
2022/03/03 01:13:10;;;;;;;9.77;3.30;;;;;;;;;;5105046;28;20533;-74
2022/03/03 01:15:36;;;;;;;11.30;3.25;;;;;;;;;;5105985;28;20036;-75
2022/03/03 01:18:01;;;;;;;7.53;3.20;;;;;;;;;;5105992;28;20084;-74
2022/03/03 01:20:30;;;;;;;9.93;3.67;;;;;;;;;;5105383;28;20056;-75
2022/03/03 01:22:56;;;;;;;10.18;3.75;;;;;;;;;;5104460;28;20398;-74
2022/03/03 01:25:22;;;;;;;10.20;3.53;;;;;;;;;;5105681;28;20056;-74
2022/03/03 01:27:47;;;;;;;9.75;3.83;;;;;;;;;;5105618;28;20066;-74
2022/03/03 01:30:13;;;;;;;8.60;3.53;;;;;;;;;;5104305;28;20024;-75
2022/03/03 01:32:39;;;;;;;14.93;3.95;;;;;;;;;;5105592;28;20032;-75
2022/03/03 01:35:05;;;;;;;17.20;4.18;;;;;;;;;;5104294;28;20024;-74
2022/03/03 01:37:31;;;;;;;13.00;4.00;;;;;;;;;;5104801;28;20020;-74
2022/03/03 01:39:57;;;;;;;9.20;3.33;;;;;;;;;;5105389;28;20028;-75
2022/03/03 01:42:22;;;;;;;8.15;2.95;;;;;;;;;;5106033;28;20073;-75
2022/03/03 01:44:48;;;;;;;10.35;3.60;;;;;;;;;;5105004;28;20028;-75
2022/03/03 01:47:23;;;;;;;12.18;3.30;;;;;;;;;;5104158;28;20062;-75
2022/03/03 01:49:50;;;;;;;10.27;3.63;;;;;;;;;;5105782;28;20034;-75
2022/03/03 01:52:16;;;;;;;10.00;3.70;;;;;;;;;;5104559;28;20027;-76
2022/03/03 01:54:42;;;;;;;15.02;3.08;;;;;;;;;;5105201;28;20057;-74
2022/03/03 01:57:12;;;;;;;10.43;3.25;;;;;;;;;;5105228;28;20016;-75
2022/03/03 01:59:38;;;;;;;11.50;3.22;;;;;;;;;;5103752;28;20066;-75
2022/03/03 02:02:06;;;;;;;8.15;3.17;;;;;;;;;;5105155;28;20032;-75
2022/03/03 02:04:32;;;;;;;9.90;3.35;;;;;;;;;;5104838;28;20522;-75
2022/03/03 02:06:58;;;;;;;13.65;3.80;;;;;;;;;;5103231;28;20038;-74
2022/03/03 02:09:24;;;;;;;9.68;3.70;;;;;;;;;;5103690;28;20315;-76
2022/03/03 02:11:50;;;;;;;13.75;3.50;;;;;;;;;;5104573;28;20024;-75
2022/03/03 02:14:15;;;;;;;14.57;3.88;;;;;;;;;;5104528;28;20024;-75
2022/03/03 02:16:41;;;;;;;8.38;2.95;;;;;;;;;;5105161;28;20035;-75
2022/03/03 02:19:07;;;;;;;12.88;3.42;;;;;;;;;;5104241;28;20539;-76
2022/03/03 02:21:33;;;;;;;11.70;3.00;;;;;;;;;;5103444;28;20032;-74
2022/03/03 02:23:59;;;;;;;10.68;3.40;;;;;;;;;;5105011;28;20071;-74
2022/03/03 02:26:25;;;;;;;6.45;3.42;;;;;;;;;;5103380;28;20044;-75
2022/03/03 02:28:52;;;;;;;5.45;2.63;;;;;;;;;;5103441;28;20032;-75
2022/03/03 02:31:19;;;;;;;8.05;3.15;;;;;;;;;;5103004;28;20034;-75
2022/03/03 02:33:45;;;;;;;7.93;2.70;;;;;;;;;;5102755;28;20347;-75
2022/03/03 02:36:18;;;;;;;8.55;3.28;;;;;;;;;;5104392;28;20024;-75
2022/03/03 02:38:48;;;;;;;7.63;2.97;;;;;;;;;;5103586;28;20035;-76
2022/03/03 02:41:14;;;;;;;6.07;2.63;;;;;;;;;;5104391;28;20028;-74
2022/03/03 02:43:40;;;;;;;7.85;3.05;;;;;;;;;;5104337;28;20027;-75
2022/03/03 02:46:07;;;;;;;9.55;3.13;;;;;;;;;;5104825;28;20032;-75
2022/03/03 02:48:32;;;;;;;10.23;2.80;;;;;;;;;;5104470;28;20020;-75
2022/03/03 02:50:58;;;;;;;7.35;2.53;;;;;;;;;;5103197;28;20465;-74
2022/03/03 02:53:24;;;;;;;7.55;3.10;;;;;;;;;;5104238;28;20039;-74
2022/03/03 02:55:53;;;;;;;12.30;3.15;;;;;;;;;;5103433;28;20028;-76
2022/03/03 02:58:19;;;;;;;7.65;2.83;;;;;;;;;;5104275;28;20466;-75
2022/03/03 03:00:47;;;;;;;9.48;2.67;;;;;;;;;;5103710;28;20039;-75
2022/03/03 03:03:13;;;;;;;8.85;2.63;;;;;;;;;;5104021;28;20466;-75
2022/03/03 03:05:41;;;;;;;7.72;3.05;;;;;;;;;;5104002;28;20083;-75
2022/03/03 03:08:06;;;;;;;7.07;2.45;;;;;;;;;;5103379;28;20036;-75
2022/03/03 03:10:32;;;;;;;7.22;2.90;;;;;;;;;;5103726;28;20020;-75
2022/03/03 03:12:58;;;;;;;7.00;3.05;;;;;;;;;;5104000;28;20028;-75
2022/03/03 03:15:24;;;;;;;5.85;2.97;;;;;;;;;;5102381;28;20053;-75
2022/03/03 03:17:50;;;;;;;10.80;2.58;;;;;;;;;;5103514;28;20036;-74
2022/03/03 03:20:15;;;;;;;8.90;2.75;;;;;;;;;;5103733;28;20099;-74
2022/03/03 03:22:41;;;;;;;5.32;2.30;;;;;;;;;;5103488;28;20063;-74
2022/03/03 03:25:10;;;;;;;8.43;2.50;;;;;;;;;;5101698;28;20056;-74
2022/03/03 03:27:41;;;;;;;7.13;2.22;;;;;;;;;;5102240;28;20088;-74
2022/03/03 03:30:08;;;;;;;6.95;2.20;;;;;;;;;;5103579;28;20035;-75
2022/03/03 03:32:34;;;;;;;6.55;2.30;;;;;;;;;;5103527;28;20032;-75
2022/03/03 03:35:00;;;;;;;6.40;2.33;;;;;;;;;;5103611;28;20474;-74
2022/03/03 03:37:26;;;;;;;8.23;2.25;;;;;;;;;;5102484;28;20386;-75
2022/03/03 03:39:51;;;;;;;12.18;2.88;;;;;;;;;;5103334;28;20036;-75
2022/03/03 03:42:17;;;;;;;9.70;3.20;;;;;;;;;;5102066;28;20032;-75
2022/03/03 03:44:43;;;;;;;8.27;3.05;;;;;;;;;;5101878;28;20046;-74
2022/03/03 03:47:10;;;;;;;10.52;3.20;;;;;;;;;;5102089;28;20028;-74
2022/03/03 03:49:36;;;;;;;8.00;2.80;;;;;;;;;;5101876;28;20024;-74
2022/03/03 03:52:01;;;;;;;7.22;2.92;;;;;;;;;;5103198;28;20020;-75
2022/03/03 03:54:27;;;;;;;9.63;2.92;;;;;;;;;;5101832;28;20048;-74
2022/03/03 03:56:55;;;;;;;9.48;2.83;;;;;;;;;;5101841;28;20024;-74
2022/03/03 03:59:20;;;;;;;12.25;3.10;;;;;;;;;;5102994;28;20074;-74
2022/03/03 04:01:45;;;;;;;10.10;2.97;;;;;;;;;;5102942;28;20362;-75
2022/03/03 04:04:11;;;;;;;10.90;3.45;;;;;;;;;;5102102;28;20406;-74
2022/03/03 04:06:37;;;;;;;9.80;2.83;;;;;;;;;;5103400;28;20051;-74
2022/03/03 04:09:03;;;;;;;8.63;2.38;;;;;;;;;;5102937;28;20490;-74
2022/03/03 04:11:29;;;;;;;6.82;2.35;;;;;;;;;;5101845;28;20020;-76
2022/03/03 04:13:56;;;;;;;7.05;2.05;;;;;;;;;;5102698;28;20089;-75
2022/03/03 04:16:26;;;;;;;4.50;1.92;;;;;;;;;;5103107;28;20031;-75
2022/03/03 04:18:52;;;;;;;7.93;2.50;;;;;;;;;;5103132;28;20454;-75
2022/03/03 04:21:18;;;;;;;8.77;1.98;;;;;;;;;;5103234;28;20024;-73
2022/03/03 04:23:43;;;;;;;6.68;1.98;;;;;;;;;;5102460;28;20024;-74
2022/03/03 04:26:09;;;;;;;7.20;2.10;;;;;;;;;;5100856;28;20483;-75
2022/03/03 04:28:35;;;;;;;6.75;2.30;;;;;;;;;;5102254;28;20429;-74
2022/03/03 04:31:01;;;;;;;9.15;2.00;;;;;;;;;;5102686;28;20527;-74
2022/03/03 04:33:26;;;;;;;8.80;2.30;;;;;;;;;;5102464;28;20047;-74
2022/03/03 04:35:54;;;;;;;7.13;1.77;;;;;;;;;;5103114;28;20335;-76
2022/03/03 04:38:20;;;;;;;7.80;1.98;;;;;;;;;;5101174;28;20025;-76
2022/03/03 04:40:45;;;;;;;7.25;2.25;;;;;;;;;;5101376;28;20022;-74
2022/03/03 04:43:11;;;;;;;9.73;1.80;;;;;;;;;;5101209;28;20025;-75
2022/03/03 04:45:37;;;;;;;5.25;1.58;;;;;;;;;;5102968;28;20464;-75
2022/03/03 04:48:03;;;;;;;4.50;2.00;;;;;;;;;;5101508;28;20062;-74
2022/03/03 04:50:30;;;;;;;6.25;1.80;;;;;;;;;;5101983;28;20028;-75
2022/03/03 04:52:55;;;;;;;6.57;1.80;;;;;;;;;;5101971;28;20122;-75
2022/03/03 04:55:21;;;;;;;7.45;2.20;;;;;;;;;;5102314;28;20036;-75
2022/03/03 04:57:46;;;;;;;4.53;1.63;;;;;;;;;;5103074;28;20030;-76
2022/03/03 05:00:12;;;;;;;4.93;1.70;;;;;;;;;;5099997;28;20555;-75
2022/03/03 05:02:38;;;;;;;8.48;1.92;;;;;;;;;;5102373;28;20069;-75
2022/03/03 05:05:05;;;;;;;5.90;1.60;;;;;;;;;;5106595;28;20035;-76
2022/03/03 05:07:31;;;;;;;6.25;1.80;;;;;;;;;;5106032;28;20088;-74
2022/03/03 05:09:56;;;;;;;5.95;1.98;;;;;;;;;;5106188;28;20043;-75
2022/03/03 05:12:22;;;;;;;5.13;1.65;;;;;;;;;;5106834;28;20016;-75
2022/03/03 05:14:48;;;;;;;7.32;1.88;;;;;;;;;;5106746;28;20027;-74
2022/03/03 05:17:14;;;;;;;7.57;1.95;;;;;;;;;;5105926;28;20057;-75
2022/03/03 05:19:40;;;;;;;7.57;1.98;;;;;;;;;;5104016;28;20091;-74
2022/03/03 05:22:05;;;;;;;11.55;1.95;;;;;;;;;;5104629;28;20055;-74
2022/03/03 05:24:30;;;;;;;7.80;2.08;;;;;;;;;;5105537;28;20039;-75
2022/03/03 05:26:56;;;;;;;7.50;1.77;;;;;;;;;;5106462;28;20074;-75
2022/03/03 05:29:22;;;;;;;7.65;1.95;;;;;;;;;;5104839;28;20053;-75
2022/03/03 05:31:47;;;;;;;3.22;1.33;;;;;;;;;;5105464;28;20039;-74
2022/03/03 05:34:14;;;;;;;9.10;2.20;;;;;;;;;;5105172;28;20031;-75
2022/03/03 05:36:41;;;;;;;4.30;1.85;;;;;;;;;;5105961;28;20085;-74
2022/03/03 05:39:08;;;;;;;8.43;1.58;;;;;;;;;;5105618;28;20044;-75
2022/03/03 05:41:36;;;;;;;4.82;1.77;;;;;;;;;;5104269;28;20070;-75
2022/03/03 05:44:04;;;;;;;4.95;1.60;;;;;;;;;;5103443;28;20114;-76
2022/03/03 05:46:30;;;;;;;6.13;1.80;;;;;;;;;;5103960;28;20485;-74
2022/03/03 05:48:56;;;;;;;7.70;1.63;;;;;;;;;;5105354;28;20036;-75
2022/03/03 05:51:21;;;;;;;4.97;1.38;;;;;;;;;;5105322;28;20032;-74
2022/03/03 05:53:50;;;;;;;3.92;1.23;;;;;;;;;;5103219;28;20035;-74
2022/03/03 05:56:19;;;;;;;5.10;1.20;;;;;;;;;;5105225;28;20059;-75
2022/03/03 05:58:49;;;;;;;7.13;1.58;;;;;;;;;;5103683;28;20119;-74
2022/03/03 06:01:18;;;;;;;2.22;0.93;;;;;;;;;;5105395;28;20036;-75
2022/03/03 06:03:50;;;;;;;4.07;1.55;;;;;;;;;;5102471;28;20043;-74
2022/03/03 06:06:25;;;;;;;3.83;1.48;;;;;;;;;;5105351;28;20063;-75
2022/03/03 06:09:10;;;;;;;4.88;1.40;;;;;;;;;;5103014;28;20023;-75
2022/03/03 06:12:02;;;;;;;10.57;1.77;;;;;;;;;;5105494;28;20028;-74
2022/03/03 06:14:37;;;;;;;6.05;1.65;;;;;;;;;;5074845;28;20040;-76
2022/03/03 06:17:02;;;;;;;8.15;1.70;;;;;;;;;;5104031;28;20029;-76
2022/03/03 06:19:29;;;;;;;5.50;1.70;;;;;;;;;;5105050;28;20042;-74
2022/03/03 06:21:58;;;;;;;6.78;1.67;;;;;;;;;;5103532;28;20045;-74
2022/03/03 06:24:23;;;;;;;11.32;1.63;;;;;;;;;;5104932;28;20464;-74
2022/03/03 06:26:48;;;;;;;3.47;1.40;;;;;;;;;;5103404;28;20040;-74
2022/03/03 06:29:15;;;;;;;4.80;1.70;;;;;;;;;;5104507;28;20030;-75
2022/03/03 06:31:40;;;;;;;5.40;1.30;;;;;;;;;;5103017;28;20060;-75
2022/03/03 06:34:07;;;;;;;6.50;1.40;;;;;;;;;;5104591;28;20031;-75
2022/03/03 06:36:34;;;;;;;7.20;1.30;;;;;;;;;;5104715;28;20028;-75
2022/03/03 06:38:59;;;;;;;5.10;1.35;;;;;;;;;;5104539;28;20035;-75
2022/03/03 06:41:29;;;;;;;5.40;1.52;;;;;;;;;;5102529;28;20032;-74
2022/03/03 06:43:54;;;;;;;9.75;1.30;;;;;;;;;;5104228;28;20052;-75
2022/03/03 06:46:21;;;;;;;11.70;1.40;;;;;;;;;;5103849;28;20028;-75
2022/03/03 06:48:47;;;;;;;5.70;1.10;;;;;;;;;;5102852;28;20020;-75
2022/03/03 06:51:17;;;;;;;7.38;1.20;;;;;;;;;;5102535;28;20046;-75
2022/03/03 06:53:45;;;;;;;8.73;1.27;;;;;;;;;;5102862;28;20088;-75
2022/03/03 06:56:12;;;;;;;7.75;1.17;;;;;;;;;;5104708;28;20087;-75
2022/03/03 06:58:38;;;;;;;7.13;1.10;;;;;;;;;;5103506;28;20097;-74
2022/03/03 07:01:12;;;;;;;11.85;1.02;;;;;;;;;;5104299;28;20032;-75
2022/03/03 07:03:41;;;;;;;4.65;0.98;;;;;;;;;;5103299;28;20028;-74
2022/03/03 07:06:06;;;;;;;5.60;1.38;;;;;;;;;;5103726;28;20028;-74
2022/03/03 07:08:33;;;;;;;8.82;1.02;;;;;;;;;;5103600;28;20028;-74
2022/03/03 07:10:59;;;;;;;6.57;1.30;;;;;;;;;;5103092;28;20020;-75
2022/03/03 07:13:24;;;;;;;6.88;1.35;;;;;;;;;;5103713;28;20027;-74
2022/03/03 07:15:55;;;;;;;4.65;0.98;;;;;;;;;;5103142;28;20028;-77
2022/03/03 07:18:39;;;;;;;6.18;1.20;;;;;;;;;;5102869;28;20731;-74
2022/03/03 07:21:18;;;;;;;8.18;1.13;;;;;;;;;;5104175;28;20539;-74
2022/03/03 07:23:53;;;;;;;9.27;1.20;;;;;;;;;;5103763;28;20016;-74
2022/03/03 07:26:20;;;;;;;7.57;0.90;;;;;;;;;;5103077;28;20040;-75
2022/03/03 07:28:50;;;;;;;5.22;0.93;;;;;;;;;;5102397;28;20543;-74
2022/03/03 07:31:18;;;;;;;6.45;0.98;;;;;;;;;;5102445;28;20115;-75
2022/03/03 07:33:48;;;;;;;9.93;1.85;;;;;;;;;;5102212;28;20464;-75
2022/03/03 07:36:19;;;;;;;3.85;0.80;;;;;;;;;;5103834;28;20028;-75
2022/03/03 07:39:00;;;;;;;5.13;1.23;;;;;;;;;;5103559;28;20034;-75
2022/03/03 07:41:27;;;;;;;5.43;0.90;;;;;;;;;;5103887;28;20027;-75
2022/03/03 07:43:54;;;;;;;3.33;0.80;;;;;;;;;;5102232;28;20065;-75
2022/03/03 07:46:20;;;;;;;2.92;0.88;;;;;;;;;;5103493;28;20119;-75
2022/03/03 07:48:46;;;;;;;4.43;1.20;;;;;;;;;;5103418;28;20032;-74
2022/03/03 07:51:12;;;;;;;6.45;0.93;;;;;;;;;;5102167;28;20032;-74
2022/03/03 07:53:37;;;;;;;2.72;0.65;;;;;;;;;;5103368;28;20383;-74
2022/03/03 07:56:04;;;;;;;4.80;0.73;;;;;;;;;;5103594;28;20055;-75
2022/03/03 07:58:36;;;;;;;4.50;0.85;;;;;;;;;;5101777;28;20119;-74
2022/03/03 08:01:05;;;;;;;4.57;0.82;;;;;;;;;;5102119;28;20024;-75
2022/03/03 08:03:31;;;;;;;3.20;0.70;;;;;;;;;;5101736;28;20028;-74
2022/03/03 08:05:58;;;;;;;5.78;0.77;;;;;;;;;;5102094;28;20054;-75
2022/03/03 08:08:29;;;;;;;2.05;0.80;;;;;;;;;;5103471;28;20088;-74
2022/03/03 08:11:06;;;;;;;2.45;0.65;;;;;;;;;;5103584;28;20107;-75
2022/03/03 08:13:32;;;;;;;4.18;0.73;;;;;;;;;;5103277;28;20032;-74
2022/03/03 08:15:58;;;;;;;4.68;0.63;;;;;;;;;;5103114;28;20035;-75
2022/03/03 08:18:35;;;;;;;4.65;0.68;;;;;;;;;;5101719;28;20063;-74
2022/03/03 08:21:02;;;;;;;2.65;0.80;;;;;;;;;;5101881;28;20055;-74
2022/03/03 08:23:29;;;;;;;2.83;0.50;;;;;;;;;;5101709;28;20028;-74
2022/03/03 08:25:56;;;;;;;2.97;0.80;;;;;;;;;;5102744;28;20052;-75
2022/03/03 08:28:24;;;;;;;1.63;0.50;;;;;;;;;;5101566;28;20028;-76
2022/03/03 08:31:19;;;;;;;3.83;0.50;;;;;;;;;;5103039;28;20040;-75
2022/03/03 08:34:02;;;;;;;4.07;0.82;;;;;;;;;;5101647;28;20040;-74
2022/03/03 08:36:42;;;;;;;1.67;0.70;;;;;;;;;;5103521;28;20052;-74
2022/03/03 08:39:07;;;;;;;3.10;0.65;;;;;;;;;;5105366;28;20035;-73
2022/03/03 08:41:38;;;;;;;2.28;0.70;;;;;;;;;;5105674;28;20024;-74
2022/03/03 08:44:05;;;;;;;3.47;0.65;;;;;;;;;;5107073;28;20059;-75
2022/03/03 08:46:36;;;;;;;3.95;0.70;;;;;;;;;;5105835;28;20056;-75
2022/03/03 08:49:04;;;;;;;1.63;0.63;;;;;;;;;;5106741;28;20032;-75
2022/03/03 08:51:30;;;;;;;2.60;0.50;;;;;;;;;;5105401;28;20065;-75
2022/03/03 08:53:56;;;;;;;5.13;0.70;;;;;;;;;;5105242;28;20099;-75
2022/03/03 08:56:23;;;;;;;3.15;0.52;;;;;;;;;;5105066;28;20032;-74
2022/03/03 08:58:49;;;;;;;1.92;0.47;;;;;;;;;;5106637;28;20055;-75
2022/03/03 09:01:15;;;;;;;1.67;0.60;;;;;;;;;;5106779;28;20067;-75
2022/03/03 09:03:43;;;;;;;2.45;0.60;;;;;;;;;;5106378;28;20028;-75
2022/03/03 09:06:16;;;;;;;3.35;0.65;;;;;;;;;;5106963;28;20028;-75
2022/03/03 09:08:41;;;;;;;1.42;0.50;;;;;;;;;;5106640;28;20032;-74
2022/03/03 09:11:10;;;;;;;4.32;0.95;;;;;;;;;;5106719;28;20046;-75
2022/03/03 09:13:36;;;;;;;4.18;0.70;;;;;;;;;;5106172;28;20059;-74
2022/03/03 09:16:05;;;;;;;1.70;0.60;;;;;;;;;;5106506;28;20452;-75
2022/03/03 09:18:31;;;;;;;2.88;0.73;;;;;;;;;;5106377;28;20040;-74
2022/03/03 09:20:57;;;;;;;3.97;0.50;;;;;;;;;;5106371;28;20059;-74
2022/03/03 09:23:23;;;;;;;2.75;0.45;;;;;;;;;;5106265;28;20028;-75
2022/03/03 09:25:48;;;;;;;2.28;0.60;;;;;;;;;;5106113;28;20101;-76
2022/03/03 09:28:14;;;;;;;3.05;0.70;;;;;;;;;;5106196;28;20080;-74
2022/03/03 09:30:40;;;;;;;4.45;0.82;;;;;;;;;;5106147;28;20020;-74
2022/03/03 09:33:05;;;;;;;1.48;0.50;;;;;;;;;;5106153;28;20032;-75
2022/03/03 09:35:35;;;;;;;1.85;0.52;;;;;;;;;;5104746;28;20051;-75
2022/03/03 09:38:04;;;;;;;3.25;0.60;;;;;;;;;;5106176;28;20036;-75
2022/03/03 09:40:30;;;;;;;4.15;0.60;;;;;;;;;;5105901;28;20039;-75
2022/03/03 09:43:00;;;;;;;2.60;0.50;;;;;;;;;;5104925;28;20036;-76
2022/03/03 09:45:27;;;;;;;2.85;0.60;;;;;;;;;;5105842;28;20043;-75
2022/03/03 09:48:05;;;;;;;1.70;0.60;;;;;;;;;;5105621;28;20062;-75
2022/03/03 09:50:38;;;;;;;3.42;0.60;;;;;;;;;;5105535;28;20024;-75
2022/03/03 09:53:24;;;;;;;0.95;0.30;;;;;;;;;;5104464;28;20591;-75
2022/03/03 09:55:52;;;;;;;2.28;0.47;;;;;;;;;;5105661;28;20510;-76
2022/03/03 09:58:21;;;;;;;3.90;0.50;;;;;;;;;;5105464;28;20016;-75
2022/03/03 10:00:58;;;;;;;2.95;0.45;;;;;;;;;;5104228;28;20032;-75
2022/03/03 10:03:36;;;;;;;1.38;0.50;;;;;;;;;;5104049;28;20028;-75
2022/03/03 10:06:02;;;;;;;2.65;0.50;;;;;;;;;;5105541;28;20028;-75
2022/03/03 10:08:30;;;;;;;2.35;0.45;;;;;;;;;;5105164;28;20043;-75
2022/03/03 10:10:57;;;;;;;5.47;0.60;;;;;;;;;;5105358;28;20052;-75
2022/03/03 10:13:26;;;;;;;3.67;0.55;;;;;;;;;;5103733;28;20065;-75
2022/03/03 10:15:54;;;;;;;3.60;0.68;;;;;;;;;;5103694;28;20039;-75
2022/03/03 10:18:21;;;;;;;2.03;0.40;;;;;;;;;;5105307;28;20028;-75
2022/03/03 10:20:50;;;;;;;1.95;0.52;;;;;;;;;;5105235;28;20028;-75
2022/03/03 10:23:30;;;;;;;1.65;0.45;;;;;;;;;;5103306;28;20024;-75
2022/03/03 10:25:59;;;;;;;2.55;0.60;;;;;;;;;;5103261;28;20116;-75
2022/03/03 10:28:27;;;;;;;2.45;0.47;;;;;;;;;;5103386;28;20402;-74
2022/03/03 10:31:01;;;;;;;5.57;0.57;;;;;;;;;;5103733;28;20078;-75
2022/03/03 10:33:36;;;;;;;2.92;0.40;;;;;;;;;;5104865;28;20040;-75
2022/03/03 10:36:26;;;;;;;3.55;0.50;;;;;;;;;;5105180;28;20020;-75
2022/03/03 10:38:55;;;;;;;2.15;0.40;;;;;;;;;;5104737;28;20016;-75
2022/03/03 10:41:40;;;;;;;0.98;0.30;;;;;;;;;;5105178;28;20017;-75
2022/03/03 10:44:13;;;;;;;1.73;0.35;;;;;;;;;;5103406;28;20092;-73
2022/03/03 10:47:00;;;;;;;1.13;0.40;;;;;;;;;;5104914;28;20028;-74
2022/03/03 10:49:31;;;;;;;1.73;0.93;;;;;;;;;;5103486;28;20028;-74
2022/03/03 10:52:21;;;;;;;3.50;0.55;;;;;;;;;;5105098;28;20036;-73
2022/03/03 10:55:03;;;;;;;4.38;1.10;;;;;;;;;;5104582;28;20038;-75
2022/03/03 10:57:32;;;;;;;1.65;0.47;;;;;;;;;;5104552;28;20032;-74
2022/03/03 10:59:59;;;;;;;2.67;0.60;;;;;;;;;;5102116;28;20574;-74
2022/03/03 11:02:28;;;;;;;2.45;0.90;;;;;;;;;;5104445;28;20081;-74
2022/03/03 11:04:57;;;;;;;2.95;0.70;;;;;;;;;;5103124;28;20123;-75
2022/03/03 11:07:28;;;;;;;2.72;0.70;;;;;;;;;;5104597;28;20051;-74
2022/03/03 11:09:57;;;;;;;3.47;0.50;;;;;;;;;;5102762;28;20032;-74
2022/03/03 11:12:22;;;;;;;1.27;0.50;;;;;;;;;;5104154;28;20474;-74
2022/03/03 11:14:48;;;;;;;1.80;0.50;;;;;;;;;;5104401;28;20043;-74
2022/03/03 11:17:14;;;;;;;2.20;0.70;;;;;;;;;;5104334;28;20059;-74
2022/03/03 11:19:43;;;;;;;1.55;0.50;;;;;;;;;;5103942;28;20048;-74
2022/03/03 11:22:16;;;;;;;1.58;0.57;;;;;;;;;;5104280;28;20028;-74
2022/03/03 11:24:42;;;;;;;4.22;0.70;;;;;;;;;;5102104;28;20028;-74
2022/03/03 11:27:10;;;;;;;0.90;0.30;;;;;;;;;;5103482;28;20189;-74
2022/03/03 11:29:38;;;;;;;0.90;0.55;;;;;;;;;;5103985;28;20020;-74
2022/03/03 11:32:08;;;;;;;1.42;0.40;;;;;;;;;;5102579;28;20032;-74
2022/03/03 11:34:34;;;;;;;1.13;0.60;;;;;;;;;;5103742;28;20486;-73
2022/03/03 11:37:07;;;;;;;2.05;0.50;;;;;;;;;;5102410;28;20095;-73
2022/03/03 11:39:39;;;;;;;0.95;0.43;;;;;;;;;;5104022;28;20513;-73
2022/03/03 11:42:34;;;;;;;2.75;0.40;;;;;;;;;;5102302;28;20221;-73
2022/03/03 11:45:06;;;;;;;2.00;0.40;;;;;;;;;;5102114;28;20024;-74
2022/03/03 11:47:34;;;;;;;0.90;0.40;;;;;;;;;;5103867;28;20096;-74
2022/03/03 11:50:19;;;;;;;1.88;0.35;;;;;;;;;;5102086;28;20035;-74
2022/03/03 11:53:02;;;;;;;2.10;0.35;;;;;;;;;;5103702;28;20020;-74
2022/03/03 11:55:43;;;;;;;2.72;0.50;;;;;;;;;;5103827;28;20039;-74
2022/03/03 11:58:34;;;;;;;1.10;0.40;;;;;;;;;;5103661;28;20444;-74
2022/03/03 12:01:05;;;;;;;1.92;0.40;;;;;;;;;;5102279;28;20028;-73
2022/03/03 12:03:55;;;;;;;2.70;0.40;;;;;;;;;;5102078;28;20115;-74
2022/03/03 12:06:37;;;;;;;1.95;0.50;;;;;;;;;;5103094;28;20058;-72
2022/03/03 12:09:22;;;;;;;2.30;0.38;;;;;;;;;;5103550;28;20024;-73
2022/03/03 12:11:50;;;;;;;1.08;0.30;;;;;;;;;;5101828;28;20100;-75
2022/03/03 12:14:29;;;;;;;1.80;0.35;;;;;;;;;;5103201;28;20031;-74
2022/03/03 12:17:40;;;;;;;2.33;0.40;;;;;;;;;;5102350;28;20462;-74
2022/03/03 12:20:27;;;;;;;4.65;0.47;;;;;;;;;;5103000;28;20024;-74
2022/03/03 12:23:12;;;;;;;1.10;0.30;;;;;;;;;;5103020;28;20035;-74
2022/03/03 12:25:50;;;;;;;3.72;0.50;;;;;;;;;;5101463;28;20060;-74
2022/03/03 12:28:34;;;;;;;0.60;0.30;;;;;;;;;;5103375;28;20116;-73
2022/03/03 12:31:03;;;;;;;3.05;0.52;;;;;;;;;;5103491;28;20082;-74
2022/03/03 12:33:34;;;;;;;2.83;0.60;;;;;;;;;;5102873;28;20043;-74
2022/03/03 12:36:05;;;;;;;2.17;0.40;;;;;;;;;;5102005;28;20367;-74
2022/03/03 12:38:33;;;;;;;1.05;0.30;;;;;;;;;;5101534;28;20501;-72
2022/03/03 12:41:02;;;;;;;2.63;0.55;;;;;;;;;;5101725;28;20031;-73
2022/03/03 12:43:36;;;;;;;1.45;0.50;;;;;;;;;;5102893;28;20047;-73
2022/03/03 12:46:02;;;;;;;2.00;0.20;;;;;;;;;;5103064;28;20020;-73
2022/03/03 12:48:30;;;;;;;1.48;0.40;;;;;;;;;;5101701;28;20032;-73
2022/03/03 12:51:05;;;;;;;3.00;0.50;;;;;;;;;;5101469;28;20052;-73
2022/03/03 12:53:42;;;;;;;2.33;0.32;;;;;;;;;;5103051;28;20032;-72
2022/03/03 12:56:07;;;;;;;2.70;0.30;;;;;;;;;;5103203;28;20036;-73
2022/03/03 12:58:35;;;;;;;1.20;0.40;;;;;;;;;;5102612;28;20398;-72
2022/03/03 13:01:03;;;;;;;2.92;0.47;;;;;;;;;;5102724;28;20032;-73
2022/03/03 13:03:34;;;;;;;2.03;0.57;;;;;;;;;;5102386;28;20032;-74
2022/03/03 13:06:03;;;;;;;0.95;0.38;;;;;;;;;;5102673;28;20028;-74
2022/03/03 13:08:36;;;;;;;1.55;0.40;;;;;;;;;;5102606;28;20517;-73
2022/03/03 13:11:08;;;;;;;3.10;0.40;;;;;;;;;;5103045;28;20116;-74
2022/03/03 13:13:55;;;;;;;3.97;0.75;;;;;;;;;;5100951;28;20108;-73
2022/03/03 13:16:23;;;;;;;1.80;0.47;;;;;;;;;;5101429;28;20029;-73
2022/03/03 13:18:50;;;;;;;1.25;0.30;;;;;;;;;;5102694;28;20044;-74
2022/03/03 13:21:18;;;;;;;1.77;0.45;;;;;;;;;;5101217;28;20036;-74
2022/03/03 13:23:50;;;;;;;4.97;0.50;;;;;;;;;;5103751;28;20089;-73
2022/03/03 13:26:25;;;;;;;1.25;0.50;;;;;;;;;;5104589;28;20375;-74
2022/03/03 13:28:55;;;;;;;2.47;0.50;;;;;;;;;;5105982;28;20055;-73
2022/03/03 13:31:26;;;;;;;2.17;0.60;;;;;;;;;;5104832;28;20108;-74
2022/03/03 13:33:52;;;;;;;2.42;0.47;;;;;;;;;;5104489;28;20028;-73
2022/03/03 13:36:26;;;;;;;5.05;0.50;;;;;;;;;;5105830;28;20028;-74
2022/03/03 13:38:56;;;;;;;3.88;0.40;;;;;;;;;;5105666;28;20044;-73
2022/03/03 13:41:26;;;;;;;1.30;0.30;;;;;;;;;;5106128;28;20036;-73
2022/03/03 13:44:11;;;;;;;4.60;0.77;;;;;;;;;;5105818;28;20028;-74
2022/03/03 13:46:37;;;;;;;3.10;0.60;;;;;;;;;;5106040;28;20074;-74
2022/03/03 13:49:06;;;;;;;2.80;0.52;;;;;;;;;;5105880;28;20062;-74
2022/03/03 13:51:35;;;;;;;5.72;0.60;;;;;;;;;;5104489;28;20097;-74
2022/03/03 13:54:05;;;;;;;1.40;0.40;;;;;;;;;;5105788;28;20047;-74
2022/03/03 13:56:33;;;;;;;2.80;0.85;;;;;;;;;;5106062;28;20110;-74
2022/03/03 13:59:13;;;;;;;4.15;0.60;;;;;;;;;;5104373;28;20119;-73
2022/03/03 14:01:39;;;;;;;3.17;0.50;;;;;;;;;;5105874;28;20028;-73
2022/03/03 14:04:16;;;;;;;3.15;0.60;;;;;;;;;;5105411;28;20501;-73
2022/03/03 14:06:44;;;;;;;2.97;0.50;;;;;;;;;;5104319;28;20028;-73
2022/03/03 14:09:24;;;;;;;4.22;0.60;;;;;;;;;;5105323;28;20089;-73
2022/03/03 14:11:50;;;;;;;3.88;0.82;;;;;;;;;;5105572;28;20089;-73
2022/03/03 14:14:19;;;;;;;2.65;0.70;;;;;;;;;;5103798;28;20032;-74
2022/03/03 14:16:50;;;;;;;1.60;0.43;;;;;;;;;;5105267;28;20024;-73
2022/03/03 14:19:16;;;;;;;2.80;0.70;;;;;;;;;;5103506;28;20028;-74
2022/03/03 14:21:44;;;;;;;3.20;0.75;;;;;;;;;;5105132;28;20054;-73
2022/03/03 14:24:09;;;;;;;2.78;0.57;;;;;;;;;;5105073;28;20378;-74
2022/03/03 14:26:35;;;;;;;2.42;0.68;;;;;;;;;;5104941;28;20067;-73
2022/03/03 14:29:04;;;;;;;2.28;0.60;;;;;;;;;;5103435;28;20054;-73
2022/03/03 14:31:30;;;;;;;2.22;0.70;;;;;;;;;;5104969;28;20042;-74
2022/03/03 14:33:56;;;;;;;2.75;0.77;;;;;;;;;;5103497;28;20047;-73
2022/03/03 14:36:21;;;;;;;1.13;0.50;;;;;;;;;;5105065;28;20032;-74
2022/03/03 14:38:47;;;;;;;4.13;0.52;;;;;;;;;;5103398;28;20024;-74
2022/03/03 14:41:13;;;;;;;5.25;0.65;;;;;;;;;;5104964;28;20055;-73
2022/03/03 14:43:38;;;;;;;4.28;0.70;;;;;;;;;;5103470;28;20038;-74
2022/03/03 14:46:06;;;;;;;2.80;0.52;;;;;;;;;;5103663;28;20028;-73
2022/03/03 14:48:37;;;;;;;0.90;0.40;;;;;;;;;;5104660;28;20028;-73
2022/03/03 14:51:06;;;;;;;2.35;0.70;;;;;;;;;;5103473;28;20548;-72
2022/03/03 14:53:32;;;;;;;2.00;0.43;;;;;;;;;;5103222;28;20027;-74